Time;durP1;ratioP1;P1;durP2;ratioP2;P2;SDS_P1;SDS_P2;PMS_P1;PMS_P2;Temp;Humidity;BMP_temperature;BMP_pressure;BME280_temperature;BME280_humidity;BME280_pressure;Samples;Min_cycle;Max_cycle;Signal;HPM_P1;HPM_P2
2022/09/21 00:01:36;;;;;;;23.02;12.40;;;;;;;29.16;61.84;100668.66;5076003;28;70472;-50
2022/09/21 00:04:09;;;;;;;17.67;11.48;;;;;;;29.17;61.89;100673.84;5077194;28;66078;-49
2022/09/21 00:06:42;;;;;;;18.83;10.20;;;;;;;29.26;62.34;100677.13;5078397;27;70559;-50
2022/09/21 00:09:14;;;;;;;15.13;9.15;;;;;;;29.25;62.88;100666.53;5078401;27;66070;-48
2022/09/21 00:11:47;;;;;;;9.68;8.68;;;;;;;29.36;63.59;100677.50;5073626;27;70774;-48
2022/09/21 00:14:19;;;;;;;13.52;8.82;;;;;;;29.39;63.86;100674.38;5076566;28;67223;-46
2022/09/21 00:16:52;;;;;;;13.23;8.52;;;;;;;29.45;64.54;100678.09;5074652;28;69822;-43
2022/09/21 00:19:25;;;;;;;10.63;8.52;;;;;;;29.48;64.75;100672.25;5076596;28;67079;-48
2022/09/21 00:21:58;;;;;;;14.63;7.30;;;;;;;29.52;65.34;100689.69;5075043;27;70518;-49
2022/09/21 00:24:30;;;;;;;14.63;8.50;;;;;;;29.59;65.26;100695.06;5076693;27;67007;-48
2022/09/21 00:27:03;;;;;;;10.25;8.70;;;;;;;29.52;66.17;100688.84;5076793;28;70188;-48
2022/09/21 00:29:36;;;;;;;11.70;8.30;;;;;;;29.64;66.40;100711.47;5074915;28;67400;-49
2022/09/21 00:32:08;;;;;;;12.40;7.13;;;;;;;29.67;66.34;100713.78;5075549;27;71064;-48
2022/09/21 00:34:41;;;;;;;7.90;7.10;;;;;;;29.70;66.83;100726.00;5072811;28;66015;-49
2022/09/21 00:37:13;;;;;;;8.18;7.40;;;;;;;29.63;66.97;100712.53;5076690;28;70614;-43
2022/09/21 00:39:46;;;;;;;16.42;7.47;;;;;;;29.60;66.71;100712.94;5090219;27;66464;-47
2022/09/21 00:42:25;;;;;;;7.30;6.57;;;;;;;29.39;66.77;100674.38;5077989;27;70716;-49
2022/09/21 00:44:58;;;;;;;9.75;5.88;;;;;;;29.76;66.18;100733.28;5080057;28;67247;-48
2022/09/21 00:47:35;;;;;;;7.30;6.47;;;;;;;29.78;66.31;100742.84;5074546;27;70702;-48
2022/09/21 00:50:13;;;;;;;6.10;5.50;;;;;;;29.31;66.54;100663.81;5077125;27;65817;-47
2022/09/21 00:52:57;;;;;;;6.85;6.07;;;;;;;29.74;65.60;100747.00;5072231;28;70786;-48
2022/09/21 00:55:36;;;;;;;6.97;6.18;;;;;;;29.45;65.46;100688.91;5069868;28;67274;-49
2022/09/21 00:58:15;;;;;;;6.55;5.70;;;;;;;29.34;65.56;100671.50;5074545;27;70155;-48
2022/09/21 01:00:48;;;;;;;5.35;4.93;;;;;;;29.83;65.93;100745.69;5070339;28;66208;-48
2022/09/21 01:03:21;;;;;;;5.65;5.00;;;;;;;29.83;65.47;100751.09;5072114;28;70347;-48
2022/09/21 01:05:53;;;;;;;5.57;5.07;;;;;;;29.54;65.90;100701.13;5074244;27;66235;-48
2022/09/21 01:08:27;;;;;;;6.30;5.80;;;;;;;29.88;65.41;100757.75;5073179;28;70024;-50
2022/09/21 01:11:22;;;;;;;5.38;4.97;;;;;;;29.36;65.66;100696.44;5077953;28;66977;-47
2022/09/21 01:14:14;;;;;;;5.93;5.32;;;;;;;29.75;64.88;100747.81;5074367;28;70120;-48
2022/09/21 01:17:01;;;;;;;5.65;5.18;;;;;;;29.86;65.48;100759.81;5070824;28;66417;-49
2022/09/21 01:19:52;;;;;;;6.70;5.47;;;;;;;29.77;65.51;100762.78;5077727;28;70570;-47
2022/09/21 01:23:15;;;;;;;7.35;5.68;;;;;;;29.77;65.09;100762.78;5070505;27;66394;-48
2022/09/21 01:25:53;;;;;;;;;;;;;;;29.48;66.34;100760.63;5040945;28;70558;-48
2022/09/21 01:28:49;;;;;;;8.80;5.10;;;;;;;29.77;65.00;100751.16;5075312;28;66431;-47
2022/09/21 01:31:29;;;;;;;6.50;4.80;;;;;;;29.92;65.13;100751.69;5077884;28;69993;-49
2022/09/21 01:34:09;;;;;;;5.65;5.15;;;;;;;29.37;64.69;100654.03;5076151;28;66903;-49
2022/09/21 01:36:43;;;;;;;8.70;4.50;;;;;;;29.93;64.64;100744.41;5082407;28;70809;-47
2022/09/21 01:39:19;;;;;;;5.25;4.75;;;;;;;30.02;64.77;100751.22;5073175;28;66467;-47
2022/09/21 01:41:53;;;;;;;6.53;4.85;;;;;;;30.03;65.04;100760.97;5082278;28;70794;-48
2022/09/21 01:44:33;;;;;;;5.15;4.80;;;;;;;29.72;64.75;100705.81;5082434;27;66801;-48
2022/09/21 01:47:11;;;;;;;6.80;4.68;;;;;;;29.56;64.87;100673.84;5081449;27;70962;-48
2022/09/21 01:49:50;;;;;;;5.85;5.07;;;;;;;30.09;64.66;100770.09;5078459;28;67142;-48
2022/09/21 01:52:46;;;;;;;8.55;5.63;;;;;;;29.68;64.43;100691.09;5073481;28;69881;-48
2022/09/21 01:55:31;;;;;;;5.78;5.28;;;;;;;29.83;64.63;100718.66;5039819;27;66855;-48
2022/09/21 01:58:21;;;;;;;4.82;4.43;;;;;;;30.12;64.87;100754.28;5078721;28;70893;-48
2022/09/21 02:00:57;;;;;;;6.38;5.35;;;;;;;30.14;64.71;100762.97;5080867;28;67141;-49
2022/09/21 02:03:48;;;;;;;6.68;4.85;;;;;;;29.48;64.69;100655.22;5074712;28;70863;-49
2022/09/21 02:06:21;;;;;;;5.22;4.82;;;;;;;30.18;64.66;100753.41;5071956;28;67044;-48
2022/09/21 02:08:53;;;;;;;5.75;5.25;;;;;;;30.20;64.62;100756.72;5077170;27;70646;-47
2022/09/21 02:11:26;;;;;;;6.80;5.38;;;;;;;30.20;64.64;100756.72;5074219;28;65983;-48
2022/09/21 02:13:58;;;;;;;6.43;5.20;;;;;;;30.25;64.02;100756.06;5080711;28;69814;-50
2022/09/21 02:16:47;;;;;;;7.45;5.10;;;;;;;30.15;64.35;100758.44;5076769;27;66116;-48
2022/09/21 02:19:21;;;;;;;6.72;5.47;;;;;;;30.27;64.51;100762.94;5080222;28;70701;-49
2022/09/21 02:22:09;;;;;;;6.15;4.70;;;;;;;30.27;64.09;100757.50;5081946;27;66872;-48
2022/09/21 02:24:56;;;;;;;6.05;5.38;;;;;;;29.76;63.78;100681.91;5080158;28;70845;-49
2022/09/21 02:27:38;;;;;;;7.15;5.25;;;;;;;30.15;64.32;100726.78;5074587;28;65657;-48
2022/09/21 02:30:18;;;;;;;8.13;5.22;;;;;;;29.81;64.43;100673.94;5077820;27;71129;-49
2022/09/21 02:33:12;;;;;;;6.05;5.25;;;;;;;30.36;64.09;100749.13;5079804;27;65582;-48
2022/09/21 02:35:48;;;;;;;8.05;5.40;;;;;;;30.27;64.04;100729.63;5076241;28;70662;-48
2022/09/21 02:39:08;;;;;;;8.60;5.25;;;;;;;29.67;64.11;100654.31;5075294;28;66779;-48
2022/09/21 02:41:51;;;;;;;7.05;5.13;;;;;;;30.41;64.42;100757.44;5075341;28;70901;-49
2022/09/21 02:44:32;;;;;;;5.50;4.90;;;;;;;30.44;64.00;100748.88;5076082;27;66146;-48
2022/09/21 02:47:09;;;;;;;5.72;5.15;;;;;;;30.47;64.19;100734.88;5075304;27;70544;-48
2022/09/21 02:49:47;;;;;;;6.43;5.07;;;;;;;30.46;64.01;100733.22;5074101;28;66988;-48
2022/09/21 02:52:21;;;;;;;6.95;5.53;;;;;;;30.53;64.06;100738.59;5079984;28;70874;-49
2022/09/21 02:54:56;;;;;;;5.85;4.63;;;;;;;30.54;63.42;100724.84;5075004;28;66711;-50
2022/09/21 02:57:29;;;;;;;6.55;4.75;;;;;;;30.56;63.68;100720.00;5073172;28;70566;-49
2022/09/21 03:00:02;;;;;;;5.95;4.22;;;;;;;30.47;63.47;100697.81;5074210;28;66605;-48
2022/09/21 03:02:43;;;;;;;9.45;4.25;;;;;;;30.16;63.82;100646.44;5076869;28;70669;-48
2022/09/21 03:05:16;;;;;;;5.00;4.60;;;;;;;30.60;63.64;100715.81;5071388;28;67479;-49
2022/09/21 03:07:48;;;;;;;7.03;4.38;;;;;;;30.64;63.69;100714.31;5080814;27;70581;-48
2022/09/21 03:10:21;;;;;;;5.07;4.20;;;;;;;30.62;63.29;100707.47;5078679;28;67666;-49
2022/09/21 03:12:58;;;;;;;5.43;4.45;;;;;;;30.21;63.88;100639.31;5075876;28;71100;-48
2022/09/21 03:15:30;;;;;;;9.90;4.55;;;;;;;30.64;63.28;100698.06;5075520;27;66823;-48
2022/09/21 03:18:05;;;;;;;4.32;3.92;;;;;;;30.26;63.60;100631.41;5081103;28;71130;-50
2022/09/21 03:20:47;;;;;;;4.60;4.20;;;;;;;30.72;63.38;100708.63;5078781;28;66830;-48
2022/09/21 03:23:19;;;;;;;6.03;4.20;;;;;;;30.74;63.67;100703.00;5077875;27;69905;-50
2022/09/21 03:25:53;;;;;;;4.05;3.50;;;;;;;30.79;63.39;100705.03;5077730;28;67129;-48
2022/09/21 03:28:25;;;;;;;5.45;4.28;;;;;;;30.81;63.01;100701.06;5074162;28;70853;-48
2022/09/21 03:30:59;;;;;;;5.45;3.78;;;;;;;30.83;63.56;100701.66;5077760;28;66558;-49
2022/09/21 03:33:32;;;;;;;4.95;4.05;;;;;;;30.82;63.48;100701.91;5081077;27;70547;-50
2022/09/21 03:36:05;;;;;;;5.68;3.50;;;;;;;30.88;62.87;100703.72;5078412;27;67475;-48
2022/09/21 03:38:38;;;;;;;4.80;3.67;;;;;;;30.90;62.80;100690.78;5077807;28;70517;-49
2022/09/21 03:41:12;;;;;;;5.90;3.92;;;;;;;30.89;63.29;100683.69;5077830;28;67209;-49
2022/09/21 03:43:44;;;;;;;4.20;3.75;;;;;;;30.85;63.17;100671.66;5077337;28;70909;-50
2022/09/21 03:46:17;;;;;;;3.50;3.20;;;;;;;30.96;62.93;100673.63;5079873;28;66769;-49
2022/09/21 03:48:50;;;;;;;6.72;4.00;;;;;;;30.99;62.89;100678.59;5073346;28;70884;-48
2022/09/21 03:51:22;;;;;;;3.70;3.40;;;;;;;31.01;62.52;100676.50;5079968;28;67057;-48
2022/09/21 03:53:55;;;;;;;4.53;3.80;;;;;;;30.91;62.72;100654.50;5079028;27;70967;-49
2022/09/21 03:56:27;;;;;;;5.40;3.38;;;;;;;31.04;62.99;100667.91;5077447;28;65894;-49
2022/09/21 03:59:00;;;;;;;3.70;3.38;;;;;;;31.07;63.00;100662.03;5072008;28;70131;-49
2022/09/21 04:01:33;;;;;;;3.60;3.30;;;;;;;30.95;62.94;100634.03;5076883;28;66734;-49
2022/09/21 04:04:05;;;;;;;3.88;3.47;;;;;;;31.10;62.37;100648.03;5073297;28;69935;-49
2022/09/21 04:06:38;;;;;;;3.75;3.45;;;;;;;31.12;62.55;100648.63;5071325;28;66495;-54
2022/09/21 04:09:11;;;;;;;4.93;3.63;;;;;;;31.14;62.28;100641.09;5075711;28;71296;-49
2022/09/21 04:11:47;;;;;;;3.95;3.53;;;;;;;31.19;62.33;100642.28;5076747;27;66513;-48
2022/09/21 04:14:21;;;;;;;3.58;3.28;;;;;;;31.20;62.59;100635.81;5078958;27;71405;-49
2022/09/21 04:16:53;;;;;;;6.53;3.35;;;;;;;31.22;62.57;100628.28;5079769;28;67005;-50
2022/09/21 04:19:26;;;;;;;4.57;3.35;;;;;;;31.24;62.00;100628.91;5059116;28;70225;-50
2022/09/21 04:21:58;;;;;;;4.10;3.70;;;;;;;31.21;62.57;100626.66;5072462;28;66828;-48
2022/09/21 04:24:31;;;;;;;3.63;3.33;;;;;;;31.26;62.30;100629.47;5072641;28;69715;-48
2022/09/21 04:27:04;;;;;;;3.70;2.90;;;;;;;31.27;62.58;100614.88;5075256;27;66074;-49
2022/09/21 04:29:37;;;;;;;3.60;3.13;;;;;;;31.27;62.27;100614.88;5074948;28;70564;-49
2022/09/21 04:32:11;;;;;;;4.03;3.55;;;;;;;31.31;62.25;100618.78;5075533;27;66137;-49
2022/09/21 04:34:43;;;;;;;3.92;3.30;;;;;;;31.30;62.31;100612.53;5076758;28;70755;-48
2022/09/21 04:37:17;;;;;;;3.10;2.90;;;;;;;31.34;61.90;100613.75;5080224;28;65233;-49
2022/09/21 04:39:50;;;;;;;3.38;3.08;;;;;;;31.35;62.30;100617.28;5074247;27;70774;-49
2022/09/21 04:42:22;;;;;;;3.40;3.10;;;;;;;31.34;62.18;100602.06;5070451;27;66059;-50
2022/09/21 04:44:55;;;;;;;3.47;3.10;;;;;;;31.36;61.96;100597.28;5074610;28;70781;-50
2022/09/21 04:47:30;;;;;;;3.88;3.28;;;;;;;31.42;61.94;100598.22;5069019;28;66361;-48
2022/09/21 04:50:02;;;;;;;5.57;3.72;;;;;;;31.33;62.15;100581.44;5078423;27;71858;-50
2022/09/21 04:52:35;;;;;;;3.60;3.30;;;;;;;31.45;61.78;100589.63;5071908;28;66446;-49
2022/09/21 04:55:08;;;;;;;3.60;3.30;;;;;;;31.37;62.09;100567.25;5074534;27;69748;-49
2022/09/21 04:57:41;;;;;;;3.60;2.97;;;;;;;31.47;61.65;100566.66;5068372;28;66742;-49
2022/09/21 05:00:13;;;;;;;4.25;3.10;;;;;;;31.50;61.58;100568.91;5079398;28;71040;-48
2022/09/21 05:02:46;;;;;;;5.32;3.47;;;;;;;31.50;61.40;100555.34;5072870;27;66679;-49
2022/09/21 05:05:18;;;;;;;2.83;2.63;;;;;;;31.53;61.59;100549.47;5072790;28;70525;-50
2022/09/21 05:07:51;;;;;;;3.83;3.53;;;;;;;31.54;61.84;100551.13;5077277;27;66220;-49
2022/09/21 05:10:24;;;;;;;3.38;3.08;;;;;;;31.56;61.70;100549.00;5077386;27;70761;-50
2022/09/21 05:12:56;;;;;;;3.78;3.47;;;;;;;31.59;61.64;100542.28;5077071;28;66083;-49
2022/09/21 05:15:29;;;;;;;3.55;3.25;;;;;;;31.58;61.73;100536.03;5074193;28;70784;-50
2022/09/21 05:18:01;;;;;;;6.03;3.25;;;;;;;31.60;61.58;100533.09;5073851;27;66517;-49
2022/09/21 05:20:34;;;;;;;3.47;3.17;;;;;;;31.61;61.62;100532.03;5078923;28;71416;-50
2022/09/21 05:23:06;;;;;;;3.45;3.17;;;;;;;31.63;61.74;100531.81;5078729;28;67264;-48
2022/09/21 05:25:44;;;;;;;3.60;3.25;;;;;;;31.64;61.30;100528.03;5076449;27;70374;-50
2022/09/21 05:28:18;;;;;;;3.42;3.17;;;;;;;31.65;61.44;100525.09;5077398;27;66784;-50
2022/09/21 05:31:11;;;;;;;3.45;3.15;;;;;;;31.24;61.54;100474.44;5072436;28;70691;-49
2022/09/21 05:34:02;;;;;;;4.20;3.10;;;;;;;31.27;61.64;100441.44;5076030;28;66957;-49
2022/09/21 05:36:57;;;;;;;4.15;3.35;;;;;;;31.52;61.39;100482.75;5073623;28;70713;-49
2022/09/21 05:39:29;;;;;;;3.45;3.15;;;;;;;31.59;61.34;100488.06;5077268;27;65617;-50
2022/09/21 05:42:03;;;;;;;3.05;2.85;;;;;;;31.62;61.35;100487.59;5076795;28;70824;-48
2022/09/21 05:44:36;;;;;;;3.55;3.25;;;;;;;31.71;61.30;100485.38;5074842;28;67036;-49
2022/09/21 05:47:19;;;;;;;3.25;2.92;;;;;;;31.75;61.02;100481.94;5075693;27;70594;-49
2022/09/21 05:50:22;;;;;;;3.60;3.30;;;;;;;31.65;61.72;100481.72;5078593;27;66904;-49
2022/09/21 05:53:39;;;;;;;3.55;3.22;;;;;;;31.72;61.64;100476.97;5072546;28;70121;-49
2022/09/21 05:56:29;;;;;;;3.25;3.05;;;;;;;31.72;61.35;100468.03;5017005;28;67322;-48
2022/09/21 05:59:19;;;;;;;6.00;3.10;;;;;;;31.69;61.32;100450.34;5069777;28;70816;-48
2022/09/21 06:02:33;;;;;;;3.10;2.80;;;;;;;31.67;61.43;100452.47;5074560;27;66563;-49
2022/09/21 06:05:10;;;;;;;3.65;3.20;;;;;;;31.80;60.96;100451.41;5012681;28;69744;-49
2022/09/21 06:07:43;;;;;;;3.00;2.55;;;;;;;31.87;61.02;100445.84;5076603;27;66142;-49
2022/09/21 06:10:16;;;;;;;2.80;2.60;;;;;;;31.89;61.18;100439.13;5076111;28;70020;-49
2022/09/21 06:12:48;;;;;;;4.50;3.00;;;;;;;31.80;61.05;100418.84;5069567;28;66823;-49
2022/09/21 06:15:21;;;;;;;3.20;2.95;;;;;;;31.92;61.38;100429.72;5076738;27;70200;-49
2022/09/21 06:17:53;;;;;;;3.17;2.95;;;;;;;31.87;61.13;100419.53;5074844;28;66971;-50
2022/09/21 06:20:26;;;;;;;3.25;3.03;;;;;;;31.90;61.14;100410.97;5063677;28;70073;-51
2022/09/21 06:23:07;;;;;;;3.03;2.80;;;;;;;31.45;61.08;100330.22;5077297;28;67024;-49
2022/09/21 06:25:40;;;;;;;2.78;2.58;;;;;;;31.99;61.17;100406.84;5095957;27;69427;-50
2022/09/21 06:28:13;;;;;;;3.17;2.88;;;;;;;32.02;60.84;100406.34;5077184;28;66003;-49
2022/09/21 06:30:51;;;;;;;2.78;2.58;;;;;;;32.01;60.71;100399.28;5071035;27;69988;-49
2022/09/21 06:33:24;;;;;;;3.00;2.78;;;;;;;31.96;60.87;100380.19;5079717;28;67043;-48
2022/09/21 06:35:59;;;;;;;2.78;2.58;;;;;;;31.61;61.14;100307.81;5080275;27;70985;-50
2022/09/21 06:38:34;;;;;;;5.82;2.85;;;;;;;32.07;60.83;100369.53;5080670;28;66904;-51
2022/09/21 06:41:06;;;;;;;2.85;2.65;;;;;;;32.12;60.93;100369.63;5074320;28;71565;-49
2022/09/21 06:43:39;;;;;;;2.83;2.58;;;;;;;32.16;60.89;100363.50;5074771;28;66276;-50
2022/09/21 06:46:11;;;;;;;2.78;2.58;;;;;;;32.17;60.67;100361.59;5074960;28;69926;-50
2022/09/21 06:48:44;;;;;;;2.60;2.40;;;;;;;32.21;60.92;100354.63;5081183;27;66082;-49
2022/09/21 06:51:19;;;;;;;2.67;2.47;;;;;;;32.24;61.03;100359.56;5082583;28;70801;-49
2022/09/21 06:53:57;;;;;;;4.47;2.55;;;;;;;32.28;60.70;100355.28;5091769;27;67159;-49
2022/09/21 06:56:29;;;;;;;6.82;2.47;;;;;;;32.32;60.68;100355.63;5078582;27;69160;-49
2022/09/21 06:59:02;;;;;;;2.83;2.63;;;;;;;32.34;60.45;100348.06;5077736;28;66557;-48
2022/09/21 07:01:35;;;;;;;3.10;2.80;;;;;;;32.38;60.49;100339.22;5077461;27;70097;-49
2022/09/21 07:04:08;;;;;;;3.00;2.70;;;;;;;32.21;60.54;100294.94;5080929;27;66885;-49
2022/09/21 07:06:40;;;;;;;2.45;2.25;;;;;;;32.44;60.48;100316.50;5077989;27;70575;-50
2022/09/21 07:09:13;;;;;;;2.83;2.63;;;;;;;32.47;60.26;100316.03;5076884;27;66127;-48
2022/09/21 07:12:06;;;;;;;2.33;2.10;;;;;;;32.44;60.25;100308.38;5080662;28;71149;-49
2022/09/21 07:14:39;;;;;;;3.10;2.33;;;;;;;32.55;60.21;100305.88;5078136;28;67082;-50
2022/09/21 07:17:13;;;;;;;3.00;2.20;;;;;;;32.47;60.24;100283.47;5078575;27;70723;-49
2022/09/21 07:19:46;;;;;;;2.85;2.55;;;;;;;32.60;60.37;100295.09;5073739;27;66980;-49
2022/09/21 07:22:19;;;;;;;6.18;2.00;;;;;;;32.69;60.03;100301.75;5078141;28;70488;-50
2022/09/21 07:24:51;;;;;;;2.40;2.20;;;;;;;32.66;59.62;100285.97;5078871;28;66092;-49
2022/09/21 07:27:29;;;;;;;4.45;2.45;;;;;;;32.64;59.72;100274.50;5076725;28;70811;-49
2022/09/21 07:30:03;;;;;;;2.22;2.13;;;;;;;32.75;59.58;100289.91;5080107;28;66298;-49
2022/09/21 07:32:35;;;;;;;7.72;2.60;;;;;;;32.80;59.63;100281.84;5045976;28;69510;-49
2022/09/21 07:35:09;;;;;;;2.53;2.15;;;;;;;32.88;59.50;100289.56;5078625;28;66637;-48
2022/09/21 07:37:42;;;;;;;4.07;2.42;;;;;;;32.87;59.40;100277.03;5078990;27;70600;-49
2022/09/21 07:40:14;;;;;;;7.22;2.60;;;;;;;32.97;59.42;100286.44;5080670;28;66822;-49
2022/09/21 07:42:51;;;;;;;7.05;2.58;;;;;;;32.88;59.27;100258.88;5077583;28;70961;-49
2022/09/21 07:45:25;;;;;;;8.05;3.40;;;;;;;33.08;59.20;100283.66;5074446;28;66783;-49
2022/09/21 07:48:04;;;;;;;6.15;3.40;;;;;;;33.09;59.06;100285.28;5078381;28;70203;-49
2022/09/21 07:50:37;;;;;;;9.32;2.85;;;;;;;33.15;59.18;100284.31;5074051;27;66382;-50
2022/09/21 07:53:10;;;;;;;9.93;3.50;;;;;;;33.20;59.00;100285.44;5078664;27;69546;-50
2022/09/21 07:55:43;;;;;;;15.30;3.67;;;;;;;33.22;58.75;100278.69;5079385;28;66204;-54
2022/09/21 08:01:06;;;;;;;8.98;3.42;;;;;;;33.30;58.59;100280.97;5076745;28;66542;-49
2022/09/21 08:03:39;;;;;;;10.57;3.50;;;;;;;33.03;58.53;100233.84;5076039;28;69846;-49
2022/09/21 08:06:11;;;;;;;12.15;3.83;;;;;;;33.40;58.43;100285.72;5077916;28;66676;-49
2022/09/21 08:08:47;;;;;;;9.07;3.67;;;;;;;33.43;58.48;100284.38;5074878;28;70796;-51
2022/09/21 08:11:26;;;;;;;13.57;4.15;;;;;;;33.46;58.48;100278.44;5079161;28;67453;-49
2022/09/21 08:14:01;;;;;;;7.05;3.97;;;;;;;33.11;58.14;100227.97;5077166;28;70868;-51
2022/09/21 08:16:34;;;;;;;9.27;3.88;;;;;;;33.49;58.29;100277.94;5073384;28;66211;-49
2022/09/21 08:19:06;;;;;;;7.43;3.95;;;;;;;33.55;58.02;100282.41;5076680;28;69602;-49
2022/09/21 08:21:39;;;;;;;11.00;4.07;;;;;;;33.56;58.24;100267.72;5078324;27;67473;-50
2022/09/21 08:24:11;;;;;;;15.32;3.72;;;;;;;33.56;57.83;100273.97;5074836;27;70705;-50
2022/09/21 08:26:45;;;;;;;11.90;4.40;;;;;;;33.57;57.52;100258.47;5074061;28;67498;-49
2022/09/21 08:29:17;;;;;;;7.57;4.38;;;;;;;33.65;57.74;100259.94;5071397;28;70578;-50
2022/09/21 08:31:51;;;;;;;13.15;4.10;;;;;;;33.67;57.89;100258.63;5072481;28;66686;-50
2022/09/21 08:34:23;;;;;;;11.70;4.20;;;;;;;33.67;57.80;100257.81;5072000;28;71180;-49
2022/09/21 08:36:56;;;;;;;9.63;4.28;;;;;;;33.71;57.62;100267.94;5077542;28;66369;-50
2022/09/21 08:39:29;;;;;;;8.50;3.97;;;;;;;33.72;57.69;100272.28;5078212;28;70841;-49
2022/09/21 08:42:23;;;;;;;6.85;3.80;;;;;;;33.69;57.24;100280.13;5078599;28;67066;-50
2022/09/21 08:45:04;;;;;;;8.70;3.50;;;;;;;33.23;57.35;100190.63;5072142;28;70123;-50
2022/09/21 08:47:45;;;;;;;8.23;3.38;;;;;;;33.78;57.45;100290.31;5078824;28;66081;-50
2022/09/21 08:50:44;;;;;;;5.47;3.70;;;;;;;33.73;57.20;100284.78;5076406;28;70545;-51
2022/09/21 08:53:25;;;;;;;6.10;3.13;;;;;;;33.29;57.35;100200.50;5078746;27;66159;-50
2022/09/21 08:55:58;;;;;;;10.93;4.05;;;;;;;33.85;57.41;100273.78;5076319;28;70190;-49
2022/09/21 08:58:32;;;;;;;7.10;3.53;;;;;;;33.63;57.04;100230.28;5077300;28;67003;-49
2022/09/21 09:01:20;;;;;;;5.78;3.40;;;;;;;33.86;56.83;100266.44;5078434;28;71027;-50
2022/09/21 09:04:09;;;;;;;6.47;3.60;;;;;;;33.93;56.86;100267.06;5073310;28;66662;-49
2022/09/21 09:07:16;;;;;;;7.07;3.60;;;;;;;33.95;57.00;100264.91;5072277;28;71000;-50
2022/09/21 09:10:10;;;;;;;5.53;3.20;;;;;;;33.95;57.08;100265.72;5051957;28;66528;-50
2022/09/21 09:13:05;;;;;;;5.82;2.78;;;;;;;33.95;56.55;100282.06;5078293;28;70826;-49
2022/09/21 09:16:07;;;;;;;6.05;3.03;;;;;;;33.90;56.86;100284.72;5077635;28;66768;-49
2022/09/21 09:18:57;;;;;;;10.70;3.42;;;;;;;33.41;56.89;100191.41;5077390;27;70792;-49
2022/09/21 09:21:37;;;;;;;8.18;3.28;;;;;;;33.87;56.70;100278.97;5068740;28;66531;-49
2022/09/21 09:24:41;;;;;;;3.85;3.15;;;;;;;33.90;56.69;100283.91;5076442;28;70213;-49
2022/09/21 09:27:18;;;;;;;8.88;3.25;;;;;;;33.49;58.22;100229.00;5070869;28;66968;-49
2022/09/21 09:30:03;;;;;;;11.10;3.67;;;;;;;33.80;58.98;100288.16;5072626;28;69772;-47
2022/09/21 09:32:40;;;;;;;8.85;3.83;;;;;;;33.78;58.87;100273.97;5074173;28;66503;-48
2022/09/21 09:35:16;;;;;;;7.75;3.60;;;;;;;33.83;59.28;100269.69;5064937;28;70951;-48
2022/09/21 09:37:51;;;;;;;7.13;3.78;;;;;;;33.68;60.23;100275.75;5078460;28;67662;-49
2022/09/21 09:40:48;;;;;;;7.30;4.28;;;;;;;33.42;60.94;100261.00;5074150;28;70407;-49
2022/09/21 09:44:16;;;;;;;8.70;3.92;;;;;;;33.44;61.05;100278.72;5078419;28;66226;-50
2022/09/21 09:47:02;;;;;;;9.50;3.80;;;;;;;33.22;60.18;100218.88;5007731;28;70798;-49
2022/09/21 09:50:19;;;;;;;10.98;4.50;;;;;;;33.52;61.19;100289.19;5007891;28;66758;-49
2022/09/21 09:52:57;;;;;;;11.20;4.43;;;;;;;33.38;60.66;100261.50;5062749;28;70784;-49
2022/09/21 09:55:42;;;;;;;7.88;4.30;;;;;;;33.53;61.43;100306.31;5075682;28;67017;-57
2022/09/21 09:58:39;;;;;;;8.48;3.95;;;;;;;33.49;61.71;100307.84;5079937;27;70801;-52
2022/09/21 10:01:40;;;;;;;13.80;4.05;;;;;;;33.45;61.75;100314.88;5079149;28;66989;-51
2022/09/21 10:04:16;;;;;;;9.65;4.20;;;;;;;33.49;61.96;100326.88;5077487;28;70135;-50
2022/09/21 10:06:48;;;;;;;7.80;4.40;;;;;;;33.53;61.41;100322.63;5078501;28;67270;-49
2022/09/21 10:09:30;;;;;;;8.35;3.88;;;;;;;33.00;62.99;100259.63;5077681;28;69683;-50
2022/09/21 10:12:23;;;;;;;9.23;4.85;;;;;;;33.40;62.76;100336.53;5072999;28;66404;-48
2022/09/21 10:15:00;;;;;;;8.73;4.30;;;;;;;33.44;61.79;100318.66;5075954;27;70044;-50
2022/09/21 10:17:33;;;;;;;19.55;4.57;;;;;;;33.51;61.92;100324.72;5077039;28;66325;-49
2022/09/21 10:20:07;;;;;;;13.43;4.57;;;;;;;33.20;62.78;100280.00;5075653;28;70738;-47
2022/09/21 10:22:41;;;;;;;9.25;4.10;;;;;;;33.58;62.05;100330.84;5077648;28;66873;-49
2022/09/21 10:25:17;;;;;;;7.32;3.90;;;;;;;33.28;62.06;100283.09;5078690;28;70284;-47
2022/09/21 10:27:50;;;;;;;11.30;4.00;;;;;;;33.64;61.89;100329.03;5074422;28;67085;-47
2022/09/21 10:30:37;;;;;;;9.13;4.63;;;;;;;33.46;62.49;100316.50;5079347;28;70979;-47
2022/09/21 10:33:28;;;;;;;12.95;3.92;;;;;;;33.46;62.95;100330.09;5079740;28;67202;-48
2022/09/21 10:36:01;;;;;;;5.03;3.55;;;;;;;33.49;61.90;100329.59;5078202;28;70571;-48
2022/09/21 10:38:35;;;;;;;6.43;3.78;;;;;;;33.58;62.55;100352.59;5080963;28;66923;-46
2022/09/21 10:41:07;;;;;;;5.78;4.07;;;;;;;33.52;63.10;100348.16;5078717;28;69980;-47
2022/09/21 10:43:43;;;;;;;7.60;3.53;;;;;;;33.48;63.50;100344.28;5078580;28;66926;-48
2022/09/21 10:46:15;;;;;;;10.30;4.10;;;;;;;33.54;63.24;100359.59;5079284;27;69508;-47
2022/09/21 10:48:48;;;;;;;6.15;3.83;;;;;;;33.53;63.37;100371.56;5070102;28;66664;-48
2022/09/21 10:51:28;;;;;;;6.70;4.00;;;;;;;32.97;63.59;100308.19;5072350;28;70035;-47
2022/09/21 10:54:07;;;;;;;4.78;3.85;;;;;;;33.50;62.92;100388.34;5079892;27;66765;-47
2022/09/21 10:56:52;;;;;;;5.15;3.70;;;;;;;32.96;64.24;100322.81;5071626;28;70454;-47
2022/09/21 10:59:28;;;;;;;5.05;3.97;;;;;;;33.00;63.26;100318.56;5073709;28;66027;-49
2022/09/21 11:02:21;;;;;;;7.85;3.72;;;;;;;33.42;62.92;100405.91;5073649;28;71375;-48
2022/09/21 11:05:09;;;;;;;7.25;3.53;;;;;;;33.37;62.98;100398.50;5077837;27;66599;-49
2022/09/21 11:07:59;;;;;;;7.60;4.03;;;;;;;33.34;63.21;100396.28;5077630;28;70665;-48
2022/09/21 11:11:03;;;;;;;5.10;4.25;;;;;;;33.05;63.53;100362.13;5076275;28;66972;-48
2022/09/21 11:13:49;;;;;;;6.05;3.53;;;;;;;33.23;63.17;100382.78;5074694;27;69760;-47
2022/09/21 11:16:48;;;;;;;5.22;4.15;;;;;;;33.22;63.71;100387.41;5075481;28;66809;-47
2022/09/21 11:19:39;;;;;;;4.68;4.03;;;;;;;33.14;63.81;100406.84;5078376;28;69728;-48
2022/09/21 11:22:24;;;;;;;6.95;4.53;;;;;;;33.19;63.46;100415.06;5076283;28;67970;-48
2022/09/21 11:25:19;;;;;;;6.32;4.10;;;;;;;33.12;63.67;100419.84;5075049;28;70058;-47
2022/09/21 11:28:03;;;;;;;4.63;3.33;;;;;;;33.17;63.65;100436.25;5077152;27;66681;-48
2022/09/21 11:30:54;;;;;;;8.77;4.13;;;;;;;32.96;63.99;100418.75;5076205;28;71004;-48
2022/09/21 11:33:53;;;;;;;5.80;4.43;;;;;;;32.99;64.21;100437.28;5079663;28;66065;-49
2022/09/21 11:36:49;;;;;;;7.45;4.15;;;;;;;32.97;64.11;100444.03;5076487;28;70170;-49
2022/09/21 11:39:48;;;;;;;4.10;3.70;;;;;;;32.57;63.66;100371.59;5073751;27;66852;-47
2022/09/21 11:42:45;;;;;;;5.82;3.92;;;;;;;32.64;63.99;100391.28;5078161;28;70201;-47
2022/09/21 11:45:27;;;;;;;4.28;3.97;;;;;;;32.95;64.11;100452.41;5076769;27;66161;-46
2022/09/21 11:48:11;;;;;;;4.60;4.20;;;;;;;32.96;63.92;100458.66;5070426;28;70260;-49
2022/09/21 11:50:44;;;;;;;4.32;3.92;;;;;;;32.93;63.83;100460.81;5076025;27;66300;-47
2022/09/21 11:53:32;;;;;;;4.90;4.50;;;;;;;32.84;64.57;100467.69;5077038;27;70680;-47
2022/09/21 11:56:30;;;;;;;4.93;4.50;;;;;;;32.77;64.66;100472.47;5076529;27;67100;-47
2022/09/21 11:59:17;;;;;;;8.07;4.70;;;;;;;32.82;64.26;100472.56;5073916;28;70789;-49
2022/09/21 12:02:17;;;;;;;11.30;6.60;;;;;;;32.76;64.74;100476.22;5069189;28;66886;-48
2022/09/21 12:04:55;;;;;;;7.03;6.15;;;;;;;32.82;64.67;100491.59;5063388;28;70272;-39
2022/09/21 12:07:53;;;;;;;6.82;6.28;;;;;;;32.29;64.43;100422.09;5078008;28;66735;-41
2022/09/21 12:10:51;;;;;;;6.47;5.95;;;;;;;32.68;64.79;100511.91;5069497;28;70251;-41
2022/09/21 12:13:58;;;;;;;10.23;5.60;;;;;;;32.61;65.36;100522.13;5073646;28;67030;-41
2022/09/21 12:16:40;;;;;;;9.73;5.72;;;;;;;32.69;64.86;100543.47;5045138;28;70144;-42
2022/09/21 12:19:26;;;;;;;8.68;5.35;;;;;;;32.71;64.63;100554.91;5073311;28;66277;-41
2022/09/21 12:22:08;;;;;;;7.50;5.10;;;;;;;32.34;64.69;100497.34;5091094;27;70447;-41
2022/09/21 12:24:49;;;;;;;5.50;5.10;;;;;;;32.30;64.81;100505.16;5076781;28;66396;-41